Time;durP1;ratioP1;P1;durP2;ratioP2;P2;SDS_P1;SDS_P2;PMS_P1;PMS_P2;Temp;Humidity;BMP_temperature;BMP_pressure;BME280_temperature;BME280_humidity;BME280_pressure;Samples;Min_cycle;Max_cycle;Signal;HPM_P1;HPM_P2
2024/04/17 00:03:16;;;;;;;16.77;5.00;;;;;3.90;100719.00;;;;10486548;27;20589;-80
2024/04/17 00:08:18;;;;;;;13.37;4.30;;;;;3.90;100710.00;;;;10526082;27;20290;-80
2024/04/17 00:13:19;;;;;;;15.87;4.60;;;;;3.90;100710.00;;;;10507625;27;20295;-81
2024/04/17 00:18:21;;;;;;;18.03;4.63;;;;;3.80;100711.00;;;;10540940;27;20356;-80
2024/04/17 00:23:22;;;;;;;18.17;4.40;;;;;3.80;100706.00;;;;10476361;27;21011;-78
2024/04/17 00:28:25;;;;;;;19.00;4.90;;;;;3.80;100702.00;;;;10522216;27;20288;-77
2024/04/17 00:33:26;;;;;;;15.30;4.40;;;;;3.80;100705.00;;;;10549349;27;20265;-77
2024/04/17 00:38:28;;;;;;;17.53;4.73;;;;;3.80;100704.00;;;;10542161;27;20261;-79
2024/04/17 00:43:29;;;;;;;20.50;5.03;;;;;3.70;100688.00;;;;10487169;27;20274;-77
2024/04/17 00:48:34;;;;;;;20.07;4.43;;;;;3.70;100698.00;;;;10524701;27;20269;-79
2024/04/17 00:53:37;;;;;;;18.13;4.80;;;;;3.70;100688.00;;;;10549005;27;20273;-77
2024/04/17 00:58:39;;;;;;;25.83;6.63;;;;;3.70;100689.00;;;;10507829;27;21002;-77
2024/04/17 01:03:40;;;;;;;15.57;4.60;;;;;3.70;100689.00;;;;10548216;27;20265;-77
2024/04/17 01:08:42;;;;;;;9.97;4.07;;;;;3.70;100683.00;;;;10544965;27;21102;-77
2024/04/17 01:13:43;;;;;;;16.23;4.60;;;;;3.60;100692.00;;;;10513477;27;20266;-78
2024/04/17 01:18:46;;;;;;;17.53;4.63;;;;;3.70;100689.00;;;;10519431;27;20778;-78
2024/04/17 01:23:53;;;;;;;25.07;5.23;;;;;3.80;100706.00;;;;10503327;27;20809;-77
2024/04/17 01:28:54;;;;;;;21.23;5.90;;;;;3.90;100704.00;;;;10571892;27;20329;-77
2024/04/17 01:33:56;;;;;;;15.77;5.03;;;;;4.00;100694.00;;;;10513563;27;20298;-80
2024/04/17 01:38:57;;;;;;;17.20;5.17;;;;;4.10;100699.00;;;;10557149;27;20600;-82
2024/04/17 01:43:59;;;;;;;20.87;4.80;;;;;4.10;100686.00;;;;10523026;27;20935;-81
2024/04/17 01:49:01;;;;;;;21.83;4.63;;;;;4.20;100689.00;;;;10508803;27;20627;-81
2024/04/17 01:54:02;;;;;;;22.27;5.87;;;;;4.40;100687.00;;;;10540133;27;20273;-82
2024/04/17 01:59:04;;;;;;;21.83;5.57;;;;;4.50;100688.00;;;;10540418;27;20295;-81
2024/04/17 02:04:05;;;;;;;21.60;6.03;;;;;4.70;100689.00;;;;10510238;28;20310;-81
2024/04/17 02:09:06;;;;;;;23.77;8.57;;;;;4.80;100689.00;;;;10492990;27;20377;-82
2024/04/17 02:14:08;;;;;;;23.87;7.33;;;;;4.90;100694.00;;;;10529572;27;20633;-80
2024/04/17 02:19:09;;;;;;;24.03;7.70;;;;;5.00;100697.00;;;;10512736;27;20265;-81
2024/04/17 02:24:11;;;;;;;18.70;8.97;;;;;5.20;100695.00;;;;10538312;27;20269;-80
2024/04/17 02:29:12;;;;;;;26.73;9.57;;;;;5.30;100718.00;;;;10536339;27;20340;-80
2024/04/17 02:34:13;;;;;;;21.53;7.77;;;;;5.40;100719.00;;;;10484471;27;20261;-82
2024/04/17 02:39:15;;;;;;;16.47;7.07;;;;;5.40;100742.00;;;;10565817;27;21138;-79
2024/04/17 02:44:19;;;;;;;14.43;6.97;;;;;5.30;100739.00;;;;10549247;27;20273;-79
2024/04/17 02:49:21;;;;;;;13.27;6.83;;;;;5.30;100747.00;;;;10501801;28;20300;-78
2024/04/17 02:54:22;;;;;;;13.57;5.77;;;;;5.30;100752.00;;;;10525003;27;20267;-79
2024/04/17 02:59:24;;;;;;;8.53;5.57;;;;;5.20;100755.00;;;;10520393;27;20269;-79
2024/04/17 03:04:25;;;;;;;12.43;5.50;;;;;5.20;100752.00;;;;10531307;27;20264;-80
2024/04/17 03:09:27;;;;;;;14.73;6.20;;;;;5.30;100761.00;;;;10531159;27;20273;-79
2024/04/17 03:14:28;;;;;;;10.97;6.20;;;;;5.30;100753.00;;;;10570536;27;20334;-81
2024/04/17 03:19:30;;;;;;;15.13;6.13;;;;;5.30;100760.00;;;;10529310;27;20281;-80
2024/04/17 03:24:32;;;;;;;9.63;5.63;;;;;5.10;100760.00;;;;10517204;27;20269;-79
2024/04/17 03:29:33;;;;;;;11.50;6.57;;;;;5.10;100752.00;;;;10483705;27;20317;-80
2024/04/17 03:34:35;;;;;;;13.33;6.77;;;;;5.10;100760.00;;;;10524086;27;20265;-79
2024/04/17 03:39:36;;;;;;;13.17;6.93;;;;;5.20;100747.00;;;;10572427;27;20292;-81
2024/04/17 03:44:42;;;;;;;14.30;8.47;;;;;5.20;100755.00;;;;10496212;27;20261;-80
2024/04/17 03:49:45;;;;;;;20.90;9.13;;;;;5.40;100770.00;;;;10521026;27;20366;-80
2024/04/17 03:54:47;;;;;;;14.33;8.50;;;;;5.40;100742.00;;;;10528606;27;20292;-84
2024/04/17 03:59:48;;;;;;;13.77;7.83;;;;;5.40;100739.00;;;;10555032;27;20291;-84
2024/04/17 04:04:50;;;;;;;13.87;6.57;;;;;5.40;100734.00;;;;10553418;27;20303;-85
2024/04/17 04:09:51;;;;;;;11.77;6.20;;;;;5.50;100733.00;;;;10499746;27;20388;-83
2024/04/17 04:14:53;;;;;;;14.07;5.73;;;;;5.40;100734.00;;;;10489226;27;20300;-83
2024/04/17 04:19:55;;;;;;;11.73;6.70;;;;;5.50;100724.00;;;;10477037;28;20376;-82
2024/04/17 04:24:56;;;;;;;15.10;5.70;;;;;5.50;100728.00;;;;10504934;27;20277;-82
2024/04/17 04:29:58;;;;;;;10.60;5.17;;;;;5.40;100730.00;;;;10514448;27;20686;-83
2024/04/17 04:34:59;;;;;;;10.77;5.97;;;;;5.50;100741.00;;;;10515417;27;20266;-83
2024/04/17 04:40:02;;;;;;;17.00;5.97;;;;;5.50;100731.00;;;;10492867;27;20289;-84
2024/04/17 04:45:03;;;;;;;10.83;6.53;;;;;5.50;100738.00;;;;10506127;27;20311;-83
2024/04/17 04:50:05;;;;;;;8.77;5.37;;;;;5.40;100729.00;;;;10461425;27;20300;-81
2024/04/17 04:55:07;;;;;;;9.83;5.50;;;;;5.40;100731.00;;;;10574303;27;20304;-82
2024/04/17 05:00:09;;;;;;;12.83;5.57;;;;;5.40;100734.00;;;;10495448;27;20321;-82
2024/04/17 05:05:10;;;;;;;11.23;5.87;;;;;5.30;100732.00;;;;10527839;27;20403;-80
2024/04/17 05:10:13;;;;;;;15.43;6.23;;;;;5.30;100742.00;;;;10530645;27;20269;-80
2024/04/17 05:15:14;;;;;;;19.13;7.67;;;;;5.30;100733.00;;;;10479526;27;21152;-80
2024/04/17 05:20:16;;;;;;;15.17;6.20;;;;;5.30;100743.00;;;;10529269;27;20374;-81
2024/04/17 05:25:19;;;;;;;13.30;6.43;;;;;5.30;100740.00;;;;10548980;27;20265;-81
2024/04/17 05:30:21;;;;;;;18.37;6.00;;;;;5.30;100738.00;;;;10519016;27;20326;-81
2024/04/17 05:35:22;;;;;;;12.50;5.27;;;;;5.40;100728.00;;;;10485554;27;20299;-79
2024/04/17 05:40:24;;;;;;;15.57;6.90;;;;;6.00;100728.00;;;;10498820;27;20465;-80
2024/04/17 05:45:25;;;;;;;16.53;7.00;;;;;6.40;100723.00;;;;10484455;27;20261;-81
2024/04/17 05:50:27;;;;;;;16.53;7.03;;;;;6.70;100730.00;;;;10556063;27;20262;-82
2024/04/17 05:55:29;;;;;;;16.40;6.90;;;;;7.00;100736.00;;;;10506538;27;20270;-81
2024/04/17 06:00:31;;;;;;;18.90;7.23;;;;;7.30;100734.00;;;;10525129;27;20301;-81
2024/04/17 06:05:33;;;;;;;15.87;6.33;;;;;7.60;100735.00;;;;10517012;27;20273;-82
2024/04/17 06:10:35;;;;;;;13.07;6.33;;;;;7.70;100740.00;;;;10510498;27;20867;-81
2024/04/17 06:15:36;;;;;;;17.53;6.20;;;;;8.30;100734.00;;;;10557629;27;20832;-83
2024/04/17 06:20:40;;;;;;;13.20;5.07;;;;;8.80;100744.00;;;;10494532;27;20648;-83
2024/04/17 06:25:44;;;;;;;13.37;5.03;;;;;9.10;100734.00;;;;10510106;27;20253;-83
2024/04/17 06:30:46;;;;;;;16.47;5.10;;;;;9.40;100740.00;;;;10529748;27;20265;-83
2024/04/17 06:35:47;;;;;;;11.17;3.80;;;;;9.60;100748.00;;;;10483639;27;20351;-83
2024/04/17 06:40:52;;;;;;;10.63;3.60;;;;;8.90;100754.00;;;;10528856;27;20642;-84
2024/04/17 06:45:54;;;;;;;16.00;3.57;;;;;8.60;100754.00;;;;10499448;27;20309;-83
2024/04/17 06:50:56;;;;;;;13.57;3.60;;;;;8.60;100753.00;;;;10524280;27;20270;-83
2024/04/17 06:55:59;;;;;;;19.17;4.50;;;;;9.40;100747.00;;;;10503580;27;20330;-82
2024/04/17 07:01:01;;;;;;;10.07;3.17;;;;;9.00;100754.00;;;;10516788;27;20271;-83
2024/04/17 07:06:04;;;;;;;18.83;4.90;;;;;9.30;100756.00;;;;10518624;27;20345;-83
2024/04/17 07:11:05;;;;;;;11.87;3.67;;;;;10.00;100751.00;;;;10506805;27;20265;-83
2024/04/17 07:16:08;;;;;;;10.93;3.77;;;;;10.50;100756.00;;;;10500692;27;20261;-82
2024/04/17 07:21:10;;;;;;;9.10;3.00;;;;;10.90;100746.00;;;;10502878;27;20326;-79
2024/04/17 07:26:15;;;;;;;9.73;2.63;;;;;11.00;100735.00;;;;10503743;27;20269;-79
2024/04/17 07:31:16;;;;;;;10.57;2.10;;;;;10.80;100733.00;;;;10521489;27;20265;-78
2024/04/17 07:36:17;;;;;;;12.97;2.97;;;;;10.80;100736.00;;;;10502186;27;20309;-77
2024/04/17 07:41:19;;;;;;;13.87;2.73;;;;;11.10;100735.00;;;;10544621;27;20270;-77
2024/04/17 07:46:21;;;;;;;13.87;2.40;;;;;11.20;100736.00;;;;10513403;27;20295;-77
2024/04/17 07:51:23;;;;;;;12.57;2.67;;;;;11.20;100729.00;;;;10502730;27;20297;-78
2024/04/17 07:56:25;;;;;;;11.83;2.77;;;;;11.50;100726.00;;;;10505691;27;20303;-78
2024/04/17 08:01:26;;;;;;;10.73;2.30;;;;;10.90;100726.00;;;;10506022;27;20268;-78
2024/04/17 08:06:28;;;;;;;9.07;2.50;;;;;11.50;100726.00;;;;10505839;27;20285;-78
2024/04/17 08:11:35;;;;;;;7.17;2.40;;;;;10.60;100720.00;;;;10516295;27;20257;-77
2024/04/17 08:16:39;;;;;;;13.47;2.10;;;;;11.60;100717.00;;;;10524279;27;20261;-78
2024/04/17 08:21:41;;;;;;;9.33;2.23;;;;;12.20;100716.00;;;;10569513;27;20303;-78
2024/04/17 08:26:43;;;;;;;6.77;1.90;;;;;12.60;100708.00;;;;10557516;27;20273;-77
2024/04/17 08:31:45;;;;;;;12.30;2.10;;;;;12.90;100715.00;;;;10538665;27;20707;-77
2024/04/17 08:36:46;;;;;;;15.17;3.57;;;;;12.40;100712.00;;;;10523926;27;20273;-79
2024/04/17 08:41:48;;;;;;;7.10;2.23;;;;;13.60;100716.00;;;;10517157;27;20268;-78
2024/04/17 08:46:52;;;;;;;10.83;2.37;;;;;12.50;100723.00;;;;10549226;27;20269;-79
2024/04/17 08:51:55;;;;;;;14.17;2.83;;;;;11.70;100719.00;;;;10527873;27;20266;-79
2024/04/17 08:56:57;;;;;;;12.50;2.67;;;;;13.90;100721.00;;;;10570736;27;21024;-78
2024/04/17 09:02:01;;;;;;;9.83;2.13;;;;;13.90;100715.00;;;;10514897;27;20320;-77
2024/04/17 09:07:03;;;;;;;9.90;2.58;;;;;16.10;100718.00;;;;10501943;27;20748;-78
2024/04/17 09:12:07;;;;;;;11.95;2.08;;;;;14.50;100715.00;;;;10521328;27;20308;-79
2024/04/17 09:17:08;;;;;;;8.77;1.90;;;;;12.70;100720.00;;;;10553698;27;20973;-78
2024/04/17 09:22:09;;;;;;;9.80;2.27;;;;;12.60;100716.00;;;;10525163;27;20312;-78
2024/04/17 09:27:14;;;;;;;9.70;2.45;;;;;15.00;100696.00;;;;10523810;27;20891;-77
2024/04/17 09:32:15;;;;;;;10.05;2.47;;;;;16.20;100709.00;;;;10550555;27;20377;-77
2024/04/17 09:37:17;;;;;;;12.60;2.13;;;;;14.40;100714.00;;;;10496035;27;20261;-78
2024/04/17 09:42:20;;;;;;;8.13;1.98;;;;;13.70;100714.00;;;;10537668;27;20269;-78
2024/04/17 09:47:22;;;;;;;6.18;2.20;;;;;15.60;100699.00;;;;10504667;27;20265;-77
2024/04/17 09:52:23;;;;;;;8.45;2.30;;;;;17.00;100708.00;;;;10489592;27;20380;-78
2024/04/17 09:57:25;;;;;;;4.28;1.00;;;;;17.10;100691.00;;;;10534306;27;20748;-78
2024/04/17 10:02:27;;;;;;;3.03;0.70;;;;;14.20;100733.00;;;;10522669;27;20366;-80
2024/04/17 10:07:29;;;;;;;0.50;0.50;;;;;10.60;100743.00;;;;10534251;27;20265;-81
2024/04/17 10:12:32;;;;;;;2.53;0.60;;;;;8.90;100735.00;;;;10536387;27;20272;-80
2024/04/17 10:17:34;;;;;;;1.03;0.73;;;;;9.20;100729.00;;;;10522092;27;20265;-79
2024/04/17 10:22:37;;;;;;;1.33;0.70;;;;;9.40;100732.00;;;;10516115;27;20370;-80
2024/04/17 10:27:40;;;;;;;1.83;0.70;;;;;9.00;100739.00;;;;10515394;27;20730;-80
2024/04/17 10:32:41;;;;;;;2.73;0.80;;;;;9.00;100745.00;;;;10536312;27;20265;-80
2024/04/17 10:37:47;;;;;;;0.77;0.73;;;;;9.30;100753.00;;;;10481978;27;20304;-79
2024/04/17 10:42:51;;;;;;;2.77;1.33;;;;;9.20;100761.00;;;;10549766;27;20258;-80
2024/04/17 10:47:53;;;;;;;1.07;0.60;;;;;8.80;100764.00;;;;10484831;27;20257;-80
2024/04/17 10:52:57;;;;;;;2.57;1.10;;;;;8.80;100763.00;;;;10488963;27;22197;-83
2024/04/17 10:58:00;;;;;;;2.57;1.00;;;;;9.00;100772.00;;;;10498484;27;20309;-80
2024/04/17 11:03:11;;;;;;;2.70;1.10;;;;;8.70;100778.00;;;;10524895;27;20374;-83
2024/04/17 11:08:12;;;;;;;1.70;1.10;;;;;8.30;100773.00;;;;10520846;27;20272;-81
2024/04/17 11:13:18;;;;;;;4.10;1.33;;;;;8.50;100766.00;;;;10546187;27;20330;-82
2024/04/17 11:18:20;;;;;;;1.47;0.93;;;;;8.70;100758.00;;;;10505880;27;20266;-82
2024/04/17 11:23:22;;;;;;;4.00;1.37;;;;;9.60;100745.00;;;;10502716;27;20314;-82
2024/04/17 11:28:23;;;;;;;1.67;1.10;;;;;10.30;100730.00;;;;10530747;27;20273;-79
2024/04/17 11:33:27;;;;;;;1.07;0.97;;;;;10.80;100727.00;;;;10499947;27;20269;-78
2024/04/17 11:38:29;;;;;;;1.53;0.87;;;;;11.30;100718.00;;;;10491136;27;20252;-79
2024/04/17 11:43:31;;;;;;;2.20;1.00;;;;;12.10;100715.00;;;;10511304;27;20269;-79
2024/04/17 11:48:32;;;;;;;1.00;0.90;;;;;12.40;100708.00;;;;10514335;27;20597;-79
2024/04/17 11:53:34;;;;;;;1.77;0.90;;;;;12.50;100716.00;;;;10493959;27;20269;-80
2024/04/17 11:58:35;;;;;;;1.53;1.07;;;;;13.10;100722.00;;;;10514171;27;20617;-80
2024/04/17 12:03:37;;;;;;;1.50;1.40;;;;;13.70;100708.00;;;;10498257;27;20362;-79
2024/04/17 12:08:40;;;;;;;1.43;1.30;;;;;14.80;100706.00;;;;10541666;27;20267;-79
2024/04/17 12:13:42;;;;;;;2.17;1.30;;;;;15.80;100707.00;;;;10553196;27;20265;-80
2024/04/17 12:18:43;;;;;;;1.48;1.10;;;;;15.10;100715.00;;;;10513469;27;20307;-80
2024/04/17 12:23:50;;;;;;;1.60;1.27;;;;;14.70;100719.00;;;;10516308;27;20268;-79
2024/04/17 12:28:51;;;;;;;2.40;1.23;;;;;14.90;100708.00;;;;10546246;27;20261;-79
2024/04/17 12:33:53;;;;;;;1.10;1.00;;;;;13.40;100714.00;;;;10532087;27;20256;-80
2024/04/17 12:38:55;;;;;;;1.45;1.13;;;;;13.20;100710.00;;;;10497742;27;20261;-79
2024/04/17 12:43:56;;;;;;;1.83;1.17;;;;;13.70;100698.00;;;;10501518;27;20296;-80
2024/04/17 12:48:58;;;;;;;2.30;1.45;;;;;14.20;100696.00;;;;10487028;27;21000;-80
2024/04/17 12:53:59;;;;;;;2.17;1.45;;;;;15.30;100708.00;;;;10487046;27;21215;-80
2024/04/17 12:59:02;;;;;;;1.83;1.42;;;;;15.70;100687.00;;;;10486379;27;20366;-80
2024/04/17 13:04:06;;;;;;;2.70;1.50;;;;;15.60;100671.00;;;;10527991;27;20261;-80
2024/04/17 13:09:10;;;;;;;1.30;1.20;;;;;16.40;100668.00;;;;10484685;27;20720;-78
2024/04/17 13:14:12;;;;;;;5.70;1.55;;;;;16.90;100659.00;;;;10512969;27;20618;-79
2024/04/17 13:19:13;;;;;;;1.30;1.20;;;;;16.40;100655.00;;;;10470512;27;20677;-79
2024/04/17 13:24:15;;;;;;;3.95;1.50;;;;;17.20;100644.00;;;;10502210;27;20261;-79
2024/04/17 13:29:16;;;;;;;2.10;1.50;;;;;17.00;100659.00;;;;10485064;27;20312;-79
2024/04/17 13:34:18;;;;;;;4.90;1.65;;;;;16.80;100660.00;;;;10519988;27;20270;-78
2024/04/17 13:39:22;;;;;;;4.03;1.33;;;;;15.20;100655.00;;;;10539816;27;20730;-78
2024/04/17 13:44:24;;;;;;;1.80;1.40;;;;;13.50;100656.00;;;;10508466;27;20269;-78
2024/04/17 13:49:26;;;;;;;3.00;1.75;;;;;13.10;100639.00;;;;10491349;27;20748;-82
2024/04/17 13:54:27;;;;;;;4.50;1.60;;;;;14.20;100637.00;;;;10530212;27;20316;-79
2024/04/17 13:59:29;;;;;;;2.22;1.67;;;;;14.10;100639.00;;;;10493875;27;20332;-78
2024/04/17 14:04:30;;;;;;;1.73;0.90;;;;;12.00;100680.00;;;;10570521;27;21588;-78
2024/04/17 14:09:32;;;;;;;3.97;1.27;;;;;10.50;100695.00;;;;10514398;27;20303;-80
2024/04/17 14:14:34;;;;;;;3.37;1.63;;;;;9.20;100716.00;;;;10518418;27;20292;-79
2024/04/17 14:19:35;;;;;;;7.13;6.30;;;;;6.40;100705.00;;;;10524370;27;20308;-76
2024/04/17 14:24:37;;;;;;;2.93;1.80;;;;;6.20;100703.00;;;;10526464;27;20352;-78
2024/04/17 14:29:39;;;;;;;2.40;1.40;;;;;6.60;100697.00;;;;10534169;27;20995;-79
2024/04/17 14:34:42;;;;;;;1.67;1.53;;;;;6.90;100693.00;;;;10503917;27;20300;-80
2024/04/17 14:39:43;;;;;;;36.53;24.40;;;;;7.40;100683.00;;;;10497010;27;20294;-79
2024/04/17 14:44:45;;;;;;;5.27;1.97;;;;;8.00;100686.00;;;;10517524;27;20376;-79
2024/04/17 14:49:46;;;;;;;3.50;1.70;;;;;8.90;100674.00;;;;10485637;27;20281;-79
2024/04/17 14:54:48;;;;;;;3.07;2.27;;;;;10.10;100673.00;;;;10526473;27;20369;-79
2024/04/17 14:59:50;;;;;;;6.67;2.70;;;;;10.30;100661.00;;;;10505525;27;20282;-79
2024/04/17 15:04:51;;;;;;;3.93;1.90;;;;;10.40;100652.00;;;;10526875;27;20269;-80
2024/04/17 15:09:52;;;;;;;2.30;1.30;;;;;9.50;100659.00;;;;10493737;27;20309;-80
2024/04/17 15:14:54;;;;;;;3.03;1.67;;;;;8.80;100670.00;;;;10525886;27;20308;-80
2024/04/17 15:19:56;;;;;;;5.67;1.17;;;;;8.00;100657.00;;;;10513871;27;20380;-82
2024/04/17 15:24:58;;;;;;;2.53;0.80;;;;;7.00;100669.00;;;;10531742;27;20290;-82
2024/04/17 15:30:00;;;;;;;4.23;0.90;;;;;7.10;100666.00;;;;10532211;27;20249;-80
2024/04/17 15:35:02;;;;;;;3.13;1.00;;;;;7.70;100675.00;;;;10526996;27;20303;-79
2024/04/17 15:40:04;;;;;;;3.10;1.03;;;;;7.90;100677.00;;;;10514223;27;20269;-78
2024/04/17 15:45:05;;;;;;;3.73;1.00;;;;;7.80;100681.00;;;;10526919;27;20823;-77
2024/04/17 15:50:07;;;;;;;1.70;0.80;;;;;7.40;100682.00;;;;10507342;27;20312;-77
2024/04/17 15:55:09;;;;;;;1.47;0.63;;;;;7.40;100687.00;;;;10557534;27;20366;-77
2024/04/17 16:00:11;;;;;;;4.17;0.80;;;;;7.30;100683.00;;;;10498006;27;20273;-77
2024/04/17 16:05:12;;;;;;;2.30;0.80;;;;;7.30;100670.00;;;;10503022;27;20295;-78
2024/04/17 16:10:14;;;;;;;4.53;1.10;;;;;7.40;100679.00;;;;10466154;27;20385;-78
2024/04/17 16:15:15;;;;;;;1.87;0.83;;;;;7.30;100680.00;;;;10485047;27;20601;-76
2024/04/17 16:20:17;;;;;;;3.57;0.90;;;;;7.30;100673.00;;;;10512099;27;20264;-77
2024/04/17 16:25:18;;;;;;;2.47;1.00;;;;;7.40;100677.00;;;;10532333;27;20264;-77
2024/04/17 16:30:20;;;;;;;1.60;0.77;;;;;7.70;100672.00;;;;10538259;27;23123;-76
2024/04/17 16:35:21;;;;;;;4.13;1.13;;;;;8.00;100684.00;;;;10513276;27;20292;-78
2024/04/17 16:40:23;;;;;;;5.33;1.00;;;;;8.50;100694.00;;;;10544803;27;20332;-77
2024/04/17 16:45:24;;;;;;;5.57;0.70;;;;;8.20;100692.00;;;;10518407;27;20261;-79
2024/04/17 16:50:26;;;;;;;26.23;12.57;;;;;7.80;100696.00;;;;10538408;27;20306;-79
2024/04/17 16:55:27;;;;;;;3.83;1.03;;;;;7.50;100708.00;;;;10560821;27;20587;-80
2024/04/17 17:00:29;;;;;;;1.83;1.03;;;;;7.20;100718.00;;;;10548550;27;20260;-79
2024/04/17 17:05:30;;;;;;;2.00;0.97;;;;;7.00;100719.00;;;;10574322;27;20326;-79
2024/04/17 17:10:32;;;;;;;0.30;0.30;;;;;6.70;100711.00;;;;10531748;27;20307;-79
2024/04/17 17:15:33;;;;;;;1.57;0.70;;;;;6.30;100731.00;;;;10480157;27;20303;-79
2024/04/17 17:20:36;;;;;;;0.30;0.30;;;;;6.00;100745.00;;;;10513232;27;20693;-79
2024/04/17 17:25:38;;;;;;;2.37;0.50;;;;;5.70;100738.00;;;;10518341;27;20304;-79
2024/04/17 17:30:40;;;;;;;0.70;0.53;;;;;5.70;100729.00;;;;10500318;27;20348;-80
2024/04/17 17:35:42;;;;;;;1.27;0.40;;;;;5.70;100722.00;;;;10530975;27;20279;-80
2024/04/17 17:40:43;;;;;;;0.63;0.63;;;;;5.90;100730.00;;;;10529066;27;20268;-80
2024/04/17 17:45:45;;;;;;;3.03;0.70;;;;;5.90;100717.00;;;;10515802;27;20277;-80
2024/04/17 17:50:47;;;;;;;2.07;1.00;;;;;5.80;100711.00;;;;10551612;27;20374;-80
2024/04/17 17:56:19;;;;;;;0.57;0.40;;;;;5.70;100705.00;;;;10540484;27;20261;-80
2024/04/17 18:01:20;;;;;;;1.87;1.47;;;;;5.80;100713.00;;;;10511787;27;20269;-80
2024/04/17 18:06:23;;;;;;;5.90;2.00;;;;;5.70;100714.00;;;;10535493;27;20692;-80
2024/04/17 18:11:25;;;;;;;2.67;0.63;;;;;5.70;100716.00;;;;10567258;27;20613;-80
2024/04/17 18:16:27;;;;;;;2.13;0.60;;;;;5.70;100727.00;;;;10551287;27;20266;-80
2024/04/17 18:21:35;;;;;;;1.87;0.73;;;;;5.70;100726.00;;;;10526492;27;20264;-79
2024/04/17 18:26:37;;;;;;;0.83;0.40;;;;;5.70;100724.00;;;;10508765;27;20586;-80
2024/04/17 18:31:41;;;;;;;7.07;0.90;;;;;5.60;100725.00;;;;10559874;27;20290;-80
2024/04/17 18:36:43;;;;;;;1.73;0.70;;;;;5.50;100726.00;;;;10496729;27;20752;-80
2024/04/17 18:41:45;;;;;;;2.10;0.80;;;;;5.40;100732.00;;;;10508254;27;20692;-80
2024/04/17 18:46:46;;;;;;;1.93;0.80;;;;;5.20;100740.00;;;;10520886;27;20308;-80
2024/04/17 18:51:49;;;;;;;2.13;0.60;;;;;5.10;100737.00;;;;10505766;27;20292;-80
2024/04/17 18:56:50;;;;;;;3.27;0.90;;;;;4.90;100742.00;;;;10522577;27;20270;-81
2024/04/17 19:01:53;;;;;;;0.87;0.83;;;;;4.80;100737.00;;;;10540306;27;20265;-79
2024/04/17 19:06:55;;;;;;;5.43;1.00;;;;;4.70;100736.00;;;;10538265;27;20372;-79
2024/04/17 19:11:56;;;;;;;2.33;1.17;;;;;4.60;100740.00;;;;10544853;27;20269;-79
2024/04/17 19:16:58;;;;;;;1.17;0.93;;;;;4.60;100745.00;;;;10500505;27;20276;-79
2024/04/17 19:22:01;;;;;;;3.80;1.33;;;;;4.60;100754.00;;;;10489600;28;20292;-79
2024/04/17 19:27:03;;;;;;;2.17;1.27;;;;;4.60;100749.00;;;;10480439;27;20254;-79
2024/04/17 19:32:05;;;;;;;2.10;1.47;;;;;4.70;100759.00;;;;10450783;27;20288;-78
2024/04/17 19:37:07;;;;;;;4.53;1.70;;;;;4.70;100776.00;;;;10499840;27;20304;-78
2024/04/17 19:42:08;;;;;;;2.83;2.13;;;;;4.70;100768.00;;;;10499653;27;20291;-78
2024/04/17 19:47:21;;;;;;;5.67;2.60;;;;;4.70;100772.00;;;;10518832;27;20259;-79
2024/04/17 19:52:23;;;;;;;5.40;2.87;;;;;4.60;100764.00;;;;10547525;27;20345;-79
2024/04/17 19:57:24;;;;;;;6.23;3.37;;;;;4.60;100771.00;;;;10511572;27;20265;-79
2024/04/17 20:02:26;;;;;;;5.40;2.83;;;;;4.60;100773.00;;;;10490995;27;20266;-78
2024/04/17 20:07:27;;;;;;;6.03;2.47;;;;;4.60;100776.00;;;;10502142;27;20277;-78
2024/04/17 20:12:29;;;;;;;4.30;3.07;;;;;4.70;100788.00;;;;10543412;27;20269;-78
2024/04/17 20:17:30;;;;;;;3.40;2.47;;;;;4.60;100789.00;;;;10539601;27;20332;-79
2024/04/17 20:22:32;;;;;;;6.77;2.40;;;;;4.60;100787.00;;;;10518714;27;20423;-78
2024/04/17 20:27:33;;;;;;;6.90;2.63;;;;;4.70;100796.00;;;;10526356;27;20274;-78
2024/04/17 20:32:34;;;;;;;4.73;2.83;;;;;4.80;100798.00;;;;10495549;27;20274;-78
2024/04/17 20:37:36;;;;;;;6.43;2.67;;;;;4.90;100806.00;;;;10483228;27;20298;-78
2024/04/17 20:42:37;;;;;;;4.20;2.40;;;;;5.10;100812.00;;;;10511602;27;21065;-78
2024/04/17 20:47:39;;;;;;;2.97;2.17;;;;;5.20;100810.00;;;;10498726;27;20277;-77
2024/04/17 20:52:40;;;;;;;5.00;2.90;;;;;5.20;100811.00;;;;10521170;27;20298;-78
2024/04/17 20:57:42;;;;;;;6.30;2.70;;;;;5.20;100816.00;;;;10534722;27;20266;-80
2024/04/17 21:02:44;;;;;;;5.93;2.60;;;;;5.00;100813.00;;;;10507471;27;20989;-78
2024/04/17 21:07:45;;;;;;;6.40;3.37;;;;;4.80;100813.00;;;;10543113;27;20265;-78
2024/04/17 21:12:47;;;;;;;5.40;3.20;;;;;4.60;100815.00;;;;10533008;27;20314;-78
2024/04/17 21:17:48;;;;;;;7.93;2.90;;;;;4.40;100819.00;;;;10466008;27;20278;-78
2024/04/17 21:22:50;;;;;;;5.73;3.20;;;;;4.30;100811.00;;;;10554904;27;20273;-81
2024/04/17 21:27:51;;;;;;;4.43;3.40;;;;;4.20;100835.00;;;;10516890;27;20265;-81
2024/04/17 21:32:53;;;;;;;7.00;3.60;;;;;4.10;100831.00;;;;10501113;27;20265;-81
2024/04/17 21:37:56;;;;;;;8.20;3.67;;;;;4.00;100831.00;;;;10522464;27;20982;-81
2024/04/17 21:42:57;;;;;;;10.17;3.97;;;;;3.90;100833.00;;;;10473430;27;20359;-81
2024/04/17 21:47:59;;;;;;;5.30;3.57;;;;;3.80;100833.00;;;;10514800;27;20391;-81
2024/04/17 21:53:01;;;;;;;7.87;3.60;;;;;3.80;100844.00;;;;10503223;27;20266;-80
2024/04/17 21:58:03;;;;;;;9.10;4.60;;;;;3.80;100855.00;;;;10534213;27;20291;-80
2024/04/17 22:03:07;;;;;;;7.23;4.17;;;;;3.90;100858.00;;;;10499649;27;20285;-80
2024/04/17 22:08:12;;;;;;;9.80;5.23;;;;;4.00;100859.00;;;;10524584;27;20376;-80
2024/04/17 22:13:15;;;;;;;9.20;5.17;;;;;4.10;100864.00;;;;10514114;27;20273;-80
2024/04/17 22:18:16;;;;;;;10.27;4.77;;;;;4.20;100869.00;;;;10519997;27;20302;-80
2024/04/17 22:23:18;;;;;;;8.73;4.17;;;;;4.30;100877.00;;;;10558301;27;20277;-80
2024/04/17 22:28:19;;;;;;;7.70;4.70;;;;;4.30;100877.00;;;;10560211;27;20372;-80
2024/04/17 22:33:21;;;;;;;9.07;5.23;;;;;4.20;100886.00;;;;10551495;27;20643;-80
2024/04/17 22:38:22;;;;;;;12.67;5.43;;;;;4.10;100894.00;;;;10565842;27;20778;-80
2024/04/17 22:43:24;;;;;;;11.43;6.10;;;;;3.90;100883.00;;;;10509435;27;20352;-78
2024/04/17 22:48:26;;;;;;;15.67;6.57;;;;;3.80;100897.00;;;;10539882;27;20361;-77
2024/04/17 22:53:28;;;;;;;9.90;5.97;;;;;3.70;100907.00;;;;10535020;27;20293;-78
2024/04/17 22:58:29;;;;;;;8.70;5.20;;;;;3.70;100914.00;;;;10501465;27;20860;-77
2024/04/17 23:03:31;;;;;;;7.87;4.87;;;;;3.80;100908.00;;;;10498813;27;20281;-77
2024/04/17 23:08:32;;;;;;;7.77;4.33;;;;;3.80;100912.00;;;;10541471;27;20584;-77
2024/04/17 23:13:34;;;;;;;5.50;4.43;;;;;3.80;100921.00;;;;10546122;27;20733;-77
2024/04/17 23:18:36;;;;;;;6.17;4.20;;;;;3.80;100919.00;;;;10492843;27;20376;-76
2024/04/17 23:23:37;;;;;;;5.67;4.60;;;;;3.80;100924.00;;;;10500849;27;20261;-78
2024/04/17 23:28:39;;;;;;;5.63;3.73;;;;;3.70;100920.00;;;;10563520;27;20347;-77
2024/04/17 23:33:41;;;;;;;10.27;6.30;;;;;3.80;100932.00;;;;10517882;27;20909;-77
2024/04/17 23:38:42;;;;;;;8.97;5.80;;;;;3.70;100925.00;;;;10514178;27;20261;-77
2024/04/17 23:43:43;;;;;;;7.17;5.10;;;;;3.70;100929.00;;;;10558744;27;20267;-77
2024/04/17 23:48:45;;;;;;;6.60;5.07;;;;;3.70;100940.00;;;;10517889;27;20321;-77
2024/04/17 23:53:46;;;;;;;6.87;5.00;;;;;3.90;100938.00;;;;10514463;27;20300;-80
2024/04/17 23:58:48;;;;;;;7.90;4.50;;;;;4.00;100948.00;;;;10545005;27;20266;-80
